Aeroporto :
LOGIN :

Iscrizione | Disclaimer

   EN    FR    IT 

 










Sommario :    VFR   VFR Marginale   IFR   IFR Intensivo   IFR Molto Intensivo
Visibilità : 
Base nubi : 
>= 8 km
>= 3000ft
5 / 8 km
1000 / 3000 ft
1500m / 5 km
500 / 1000 ft
800 / 1500m
200 / 500 ft
< 800m
< 200 ft
Simboli :   Temporali  Nebbia  Neve Forte  Precipitazioni Forti  Vento > 20 kt
SIGMETs :   Varie  Temporali  Ghiacco  Turbolenza  Onda orograficha  Ceneri Vulcaniche






- Altitudine del aeroporto : 605 ft
- Codice IATA : BAY


LRBM - Tautii Magheraus

ULTIMO METAR :
  • 231130Z 10004KT 9999 FEW043 18/09 Q1019

METARs OBSOLETI :
  • 231100Z 12002KT 9999 FEW043 18/09 Q1020
  • 231030Z 13004KT 100V170 9999 FEW043 17/08 Q1020
  • 231000Z 11005KT 9999 FEW043 16/08 Q1020
  • 230930Z 11003KT 060V130 CAVOK 15/08 Q1021
  • 230900Z 12002KT CAVOK 14/09 Q1021

TAF TAF LRBM
Valido dal 23 a 09 ore il 23 a 18 ore UTC


230800Z 2309/2318 VRB04KT CAVOK
BECMG 2311/2313 11010KT



MetMap, La meteo Aeronautica in un colpo d'occhio ! - Copyright ORBIFLY Dicembre 2007 - Disclaimer

ORBIFLY MET'MAP TEAM :

Programmazione e sviluppo : Alexandra Zaïnal
Concezione : Baudouin d'Aumeries
Aiuto per la programmazione : Marc-Olivier Méhu
Supporto tecnico e logistico : Manuel Goepfert
Aiuto per la traduzione : Arnaldo La Scala

Contatto : metmap@orbifly.com




FONTI E CREDITI :

   NOAA